Hargeisa, Somalia
Current Conditions -  °F | °C
As of 4:55 AM on Friday 21 Nov 2014 (Local Time) from KQRH Reporting Station
Broken Clouds Broken Clouds  
Wind Chill: 79°   Ceiling: 4400
Heat Index: 81°   Visibility: 6mi
Dew Point: 72°   Wind: 2mph
Humidity: 80%   Direction: 190°S
Pressure: 30"   Gusts: NA
Location:  9.51°N, 44.08°E
Report Text: KQRH 210155Z AUTO 19002KT 9999 FEW018 SCT031 BKN044 26/22 A3000 RMK AO2 SLP158 T02590222
Loading
Personal Weather Stations






























Interactive Weather Map New forecast layout! Learn more

10-Day Weather Forecast

Advertisements
Track Severe Weather on mobile